Time;durP1;ratioP1;P1;durP2;ratioP2;P2;SDS_P1;SDS_P2;PMS_P1;PMS_P2;Temp;Humidity;BMP_temperature;BMP_pressure;BME280_temperature;BME280_humidity;BME280_pressure;Samples;Min_cycle;Max_cycle;Signal;HPM_P1;HPM_P2
2022/04/13 00:00:13;;;;;;;8.50;4.90;;;;;;;13.77;77.20;68304.03;5004509;28;20053;-88
2022/04/13 00:02:39;;;;;;;8.60;4.45;;;;;;;13.76;76.65;68297.56;5007067;28;20111;-87
2022/04/13 00:05:06;;;;;;;10.95;4.90;;;;;;;13.78;76.77;68299.25;5006561;28;20049;-88
2022/04/13 00:07:31;;;;;;;8.52;4.88;;;;;;;13.75;77.56;68307.13;5027044;28;20447;-87
2022/04/13 00:09:57;;;;;;;8.48;4.80;;;;;;;;;;5004626;28;20071;-88
2022/04/13 00:12:23;;;;;;;8.23;4.68;;;;;;;13.67;77.47;68292.66;5026690;28;20592;-88
2022/04/13 00:14:48;;;;;;;9.57;5.13;;;;;;;13.65;77.56;68290.38;5004572;28;20041;-88
2022/04/13 00:17:14;;;;;;;9.02;5.28;;;;;;;13.61;78.38;68285.25;5007954;28;20046;-88
2022/04/13 00:19:39;;;;;;;10.98;5.70;;;;;;;13.58;78.26;68277.09;5025435;28;20049;-88
2022/04/13 00:22:05;;;;;;;9.60;4.90;;;;;;;13.58;78.46;68277.09;5024490;28;20033;-88
2022/04/13 00:24:30;;;;;;;8.88;5.10;;;;;;;;;;5007201;28;20072;-88
2022/04/13 00:26:57;;;;;;;9.02;4.53;;;;;;;13.50;79.18;68276.00;5024506;28;20202;-88
2022/04/13 00:29:23;;;;;;;9.35;5.18;;;;;;;13.46;79.55;68268.75;5025654;28;20179;-88
2022/04/13 00:31:48;;;;;;;12.93;5.03;;;;;;;13.43;79.21;68260.00;5024821;28;20116;-87
2022/04/13 00:34:14;;;;;;;8.60;4.65;;;;;;;;;;5026022;28;20451;-88
2022/04/13 00:36:39;;;;;;;7.47;5.20;;;;;;;13.41;79.63;68263.09;5007370;28;20518;-88
2022/04/13 00:39:05;;;;;;;9.07;4.85;;;;;;;13.38;80.50;68254.31;5006277;28;20791;-88
2022/04/13 00:41:30;;;;;;;12.43;5.43;;;;;;;;;;5023216;28;20063;-86
2022/04/13 00:44:06;;;;;;;8.00;4.97;;;;;;;13.25;81.44;68250.78;5022800;28;20045;-88
2022/04/13 00:46:32;;;;;;;9.77;4.97;;;;;;;;;;5001038;28;20335;-88
2022/04/13 00:48:58;;;;;;;11.80;5.20;;;;;;;13.12;81.88;68233.31;5004711;28;20075;-87
2022/04/13 00:51:24;;;;;;;11.73;5.03;;;;;;;13.09;81.45;68222.47;5004625;28;20493;-86
2022/04/13 00:53:51;;;;;;;11.23;5.00;;;;;;;13.07;81.83;68225.53;5014917;28;20063;-87
2022/04/13 00:56:21;;;;;;;10.82;5.80;;;;;;;;;;5025661;28;20045;-87
2022/04/13 00:58:47;;;;;;;12.15;5.65;;;;;;;12.98;82.60;68215.31;5005380;28;20132;-88
2022/04/13 01:01:13;;;;;;;14.13;5.93;;;;;;;12.92;83.10;68209.06;5023777;28;20084;-87
2022/04/13 01:03:39;;;;;;;8.60;5.20;;;;;;;12.86;83.46;68205.47;5006078;28;20723;-88
2022/04/13 01:06:05;;;;;;;10.02;5.80;;;;;;;12.84;83.89;68199.94;5023496;28;20081;-88
2022/04/13 01:08:31;;;;;;;9.10;5.75;;;;;;;12.81;84.32;68191.78;5001921;28;20075;-88
2022/04/13 01:10:58;;;;;;;8.70;6.03;;;;;;;;;;5009370;28;20048;-87
2022/04/13 01:13:23;;;;;;;7.47;5.18;;;;;;;12.75;84.61;68184.94;5029344;28;20053;-86
2022/04/13 01:15:50;;;;;;;7.80;5.43;;;;;;;12.72;84.96;68186.88;5028363;28;20033;-88
2022/04/13 01:18:18;;;;;;;10.93;6.45;;;;;;;12.68;85.45;68181.75;5010632;28;20523;-88
2022/04/13 01:20:53;;;;;;;11.77;6.27;;;;;;;12.64;85.80;68177.78;5010390;28;20037;-88
2022/04/13 01:23:23;;;;;;;12.45;5.85;;;;;;;12.59;85.98;68172.09;4991479;28;20467;-88
2022/04/13 01:25:50;;;;;;;11.65;6.18;;;;;;;12.58;86.64;68171.53;5011048;28;20045;-87
2022/04/13 01:28:16;;;;;;;11.57;6.40;;;;;;;12.56;86.48;68171.34;5030792;28;20076;-87
2022/04/13 01:30:41;;;;;;;10.35;6.30;;;;;;;12.53;87.07;68165.84;5028454;28;20045;-88
2022/04/13 01:33:07;;;;;;;13.90;6.30;;;;;;;;;;5030341;28;20053;-88
2022/04/13 01:35:32;;;;;;;11.10;6.20;;;;;;;;;;5009574;28;20191;-87
2022/04/13 01:37:57;;;;;;;11.10;6.10;;;;;;;12.47;87.70;68158.47;5010023;28;20045;-88
2022/04/13 01:40:23;;;;;;;9.95;5.85;;;;;;;12.46;87.88;68162.66;5008729;28;20056;-88
2022/04/13 01:42:49;;;;;;;13.95;6.10;;;;;;;12.39;88.16;68150.50;5006369;28;20072;-88
2022/04/13 01:45:19;;;;;;;14.55;5.97;;;;;;;12.35;88.25;68145.97;5023870;28;20053;-86
2022/04/13 01:47:49;;;;;;;14.07;6.53;;;;;;;12.32;88.53;68142.56;5028057;28;20493;-86
2022/04/13 01:50:16;;;;;;;13.38;6.15;;;;;;;12.30;88.49;68139.72;5009870;28;20102;-87
2022/04/13 01:52:45;;;;;;;13.57;6.07;;;;;;;12.28;88.72;68137.44;5007734;28;20048;-86
2022/04/13 01:55:10;;;;;;;;;;;;;;;12.25;88.56;68134.59;5027098;28;20050;-87
2022/04/13 01:57:36;;;;;;;11.68;5.80;;;;;;;;;;5009079;28;19986;-87
2022/04/13 02:00:04;;;;;;;8.70;6.18;;;;;;;12.07;89.89;68114.72;5008671;28;20313;-87
2022/04/13 02:02:29;;;;;;;10.93;6.30;;;;;;;12.07;90.16;68108.81;5024823;28;20169;-87
2022/04/13 02:04:55;;;;;;;12.05;6.25;;;;;;;12.05;90.61;68111.88;5026369;28;20132;-88
2022/04/13 02:07:20;;;;;;;12.45;5.80;;;;;;;12.05;90.47;68114.53;5009107;28;20209;-87
2022/04/13 02:09:45;;;;;;;9.90;6.38;;;;;;;12.01;90.85;68107.31;5026672;28;20111;-87
2022/04/13 02:12:11;;;;;;;9.52;6.30;;;;;;;;;;5027281;28;20045;-88
2022/04/13 02:14:36;;;;;;;12.30;7.47;;;;;;;;;;5027650;28;20048;-87
2022/04/13 02:17:01;;;;;;;12.63;7.35;;;;;;;;;;5026899;28;20357;-87
2022/04/13 02:19:27;;;;;;;11.65;6.28;;;;;;;11.91;90.90;68099.78;5025571;28;20380;-87
2022/04/13 02:21:52;;;;;;;13.30;6.78;;;;;;;11.86;91.09;68094.09;5010313;28;20037;-87
2022/04/13 02:24:18;;;;;;;12.00;6.30;;;;;;;11.83;91.18;68082.66;5027599;28;20408;-87
2022/04/13 02:26:43;;;;;;;12.45;6.80;;;;;;;11.81;91.00;68085.16;5007835;28;20041;-88
2022/04/13 02:29:08;;;;;;;11.38;6.40;;;;;;;11.75;91.19;68078.91;5029131;28;20148;-87
2022/04/13 02:31:34;;;;;;;10.52;6.97;;;;;;;11.68;91.49;68066.19;5008081;28;20059;-87
2022/04/13 02:33:59;;;;;;;9.70;6.05;;;;;;;11.65;91.61;68062.19;5008322;28;20045;-87
2022/04/13 02:36:25;;;;;;;11.52;6.47;;;;;;;11.60;91.65;68061.88;5008766;28;20496;-87
2022/04/13 02:38:50;;;;;;;9.07;6.60;;;;;;;11.52;92.19;68056.56;5025806;28;20045;-86
2022/04/13 02:41:15;;;;;;;11.13;6.40;;;;;;;11.45;92.96;68048.63;5027805;28;20048;-88
2022/04/13 02:43:41;;;;;;;10.63;6.97;;;;;;;11.48;92.63;68043.47;5026375;28;20492;-87
2022/04/13 02:46:06;;;;;;;12.90;6.68;;;;;;;11.47;92.83;68048.22;5007235;28;20485;-88
2022/04/13 02:48:32;;;;;;;12.75;6.97;;;;;;;11.45;92.67;68051.31;5008959;28;20432;-87
2022/04/13 02:50:57;;;;;;;12.50;6.63;;;;;;;11.45;92.34;68048.63;5010945;28;20037;-87
2022/04/13 02:53:26;;;;;;;11.10;6.28;;;;;;;11.44;92.17;68044.81;5008274;28;20421;-88
2022/04/13 02:55:51;;;;;;;11.52;6.68;;;;;;;11.43;92.21;68045.78;5007280;28;20047;-87
2022/04/13 02:58:17;;;;;;;13.07;6.28;;;;;;;11.38;92.49;68032.69;5009028;28;20057;-88
2022/04/13 03:00:42;;;;;;;8.48;6.30;;;;;;;;;;5008833;28;20045;-88
2022/04/13 03:03:08;;;;;;;11.95;6.57;;;;;;;11.34;92.67;68032.91;5007434;28;20127;-88
2022/04/13 03:05:33;;;;;;;12.70;6.85;;;;;;;11.31;93.09;68024.75;5009786;28;20041;-87
2022/04/13 03:07:58;;;;;;;9.52;6.22;;;;;;;;;;5007252;28;20241;-87
2022/04/13 03:10:24;;;;;;;11.05;6.07;;;;;;;11.25;92.38;68026.50;5007966;28;20512;-87
2022/04/13 03:12:49;;;;;;;10.15;5.93;;;;;;;;;;5008688;28;20087;-87
2022/04/13 03:15:14;;;;;;;11.17;7.50;;;;;;;11.18;92.86;68015.31;5011270;28;20065;-88
2022/04/13 03:17:40;;;;;;;11.63;6.65;;;;;;;11.17;92.43;68014.16;5009469;28;20793;-87
2022/04/13 03:20:07;;;;;;;10.43;6.68;;;;;;;11.14;92.53;68010.78;5024386;28;20580;-86
2022/04/13 03:22:32;;;;;;;13.70;7.28;;;;;;;11.09;93.02;68008.31;5007275;28;20131;-88
2022/04/13 03:25:01;;;;;;;12.65;6.80;;;;;;;11.04;93.13;68000.53;5024445;28;20041;-87
2022/04/13 03:27:27;;;;;;;12.32;6.65;;;;;;;;;;5008343;28;20439;-87
2022/04/13 03:29:52;;;;;;;14.05;7.32;;;;;;;10.97;93.97;67997.94;5009345;28;20053;-88
2022/04/13 03:32:17;;;;;;;9.40;6.72;;;;;;;10.90;94.22;67989.97;5030510;28;20045;-88
2022/04/13 03:34:43;;;;;;;9.93;6.72;;;;;;;10.85;94.43;67981.66;5029682;28;20658;-87
2022/04/13 03:37:08;;;;;;;12.13;7.03;;;;;;;10.83;94.72;67976.72;5029939;28;20041;-87
2022/04/13 03:39:33;;;;;;;13.30;6.78;;;;;;;;;;5011579;28;20075;-88
2022/04/13 03:41:59;;;;;;;12.73;7.55;;;;;;;10.78;95.08;67973.69;5006774;28;20098;-88
2022/04/13 03:44:24;;;;;;;13.93;7.57;;;;;;;10.75;95.39;67967.63;5006407;28;20501;-87
2022/04/13 03:46:50;;;;;;;11.45;7.32;;;;;;;10.74;95.79;67969.16;5006440;28;20087;-87
2022/04/13 03:49:15;;;;;;;12.80;7.57;;;;;;;10.70;96.05;67965.16;5027558;28;20512;-88
2022/04/13 03:51:41;;;;;;;12.60;7.90;;;;;;;10.69;96.29;67964.03;5006103;28;20037;-88
2022/04/13 03:54:07;;;;;;;12.65;7.43;;;;;;;10.71;96.05;67963.09;5004601;28;20112;-87
2022/04/13 03:56:33;;;;;;;16.85;7.43;;;;;;;;;;5025743;28;20570;-88
2022/04/13 03:58:59;;;;;;;12.95;7.47;;;;;;;10.67;96.41;67958.53;5007270;28;20045;-87
2022/04/13 04:01:25;;;;;;;11.98;6.80;;;;;;;10.67;96.80;67958.53;5007335;28;20056;-87
2022/04/13 04:03:51;;;;;;;10.10;7.30;;;;;;;10.66;96.40;67957.41;5006335;28;20041;-86
2022/04/13 04:06:17;;;;;;;10.95;7.30;;;;;;;10.63;96.46;67957.22;5024413;28;20061;-87
2022/04/13 04:08:42;;;;;;;12.82;7.45;;;;;;;10.56;96.65;67949.88;5013176;28;20037;-87
2022/04/13 04:11:08;;;;;;;11.07;6.75;;;;;;;10.55;96.59;67950.81;5010287;28;20567;-88
2022/04/13 04:13:33;;;;;;;15.82;7.15;;;;;;;10.54;97.15;67944.38;5007470;28;20041;-86
2022/04/13 04:16:00;;;;;;;10.95;7.00;;;;;;;10.52;97.05;67945.31;5022835;28;20042;-88
2022/04/13 04:18:25;;;;;;;12.27;7.20;;;;;;;10.45;97.00;67934.16;5001341;28;20108;-87
2022/04/13 04:20:50;;;;;;;12.60;7.38;;;;;;;10.40;97.38;67929.03;5024662;28;20037;-87
2022/04/13 04:23:16;;;;;;;12.48;7.38;;;;;;;10.40;97.38;67931.69;5026395;28;20045;-88
2022/04/13 04:25:41;;;;;;;11.13;7.13;;;;;;;;;;5024548;28;20041;-87
2022/04/13 04:28:10;;;;;;;12.05;7.25;;;;;;;10.38;97.97;67927.31;5005866;28;20133;-88
2022/04/13 04:30:35;;;;;;;12.00;7.95;;;;;;;10.34;98.02;67925.47;5022762;28;20492;-87
2022/04/13 04:33:01;;;;;;;15.02;7.95;;;;;;;10.31;98.09;67922.06;5024749;28;20124;-88
2022/04/13 04:35:26;;;;;;;17.27;7.60;;;;;;;10.30;98.11;67918.28;5006116;28;20169;-87
2022/04/13 04:37:52;;;;;;;14.88;8.18;;;;;;;10.25;98.21;67917.88;5024571;28;20508;-88
2022/04/13 04:40:17;;;;;;;15.77;8.48;;;;;;;10.26;98.38;67916.34;5006227;28;20531;-88
2022/04/13 04:42:47;;;;;;;14.80;8.30;;;;;;;10.26;98.72;67918.44;5005257;28;20469;-87
2022/04/13 04:45:16;;;;;;;12.30;8.10;;;;;;;10.26;98.82;67915.78;5005228;28;20051;-87
2022/04/13 04:47:42;;;;;;;19.77;8.27;;;;;;;10.21;98.74;67907.47;5007125;28;20045;-88
2022/04/13 04:50:09;;;;;;;17.30;7.97;;;;;;;10.20;99.29;67909.56;5008477;28;20057;-87
2022/04/13 04:52:38;;;;;;;18.17;7.65;;;;;;;;;;5010532;28;20128;-87
2022/04/13 04:55:04;;;;;;;14.25;7.88;;;;;;;10.20;98.76;67909.00;5009670;28;20042;-87
2022/04/13 04:57:29;;;;;;;19.10;9.20;;;;;;;10.22;99.25;67908.59;5025156;28;20050;-88
2022/04/13 04:59:55;;;;;;;15.10;8.30;;;;;;;10.22;99.62;67911.81;5006975;28;20044;-86
2022/04/13 05:02:20;;;;;;;13.38;7.70;;;;;;;10.25;99.28;67914.66;5005883;28;20041;-87
2022/04/13 05:04:45;;;;;;;17.63;8.75;;;;;;;10.27;99.37;67914.28;5024609;28;20081;-87
2022/04/13 05:07:11;;;;;;;13.52;7.68;;;;;;;10.28;99.19;67916.00;5006261;28;20072;-87
2022/04/13 05:09:36;;;;;;;17.10;7.95;;;;;;;10.32;99.29;67920.53;5006048;28;20132;-87
2022/04/13 05:12:01;;;;;;;18.05;8.13;;;;;;;10.33;99.61;67921.66;5005185;28;20045;-87
2022/04/13 05:14:29;;;;;;;18.35;7.82;;;;;;;10.33;99.46;67926.44;5006913;28;20049;-88
2022/04/13 05:16:54;;;;;;;21.35;8.45;;;;;;;;;;5022732;28;20045;-87
2022/04/13 05:19:19;;;;;;;20.65;8.30;;;;;;;;;;5025839;28;20056;-88
2022/04/13 05:21:44;;;;;;;12.77;7.50;;;;;;;10.36;100.00;67927.16;5006943;28;20041;-88
2022/04/13 05:24:10;;;;;;;15.63;7.80;;;;;;;10.38;100.00;67930.00;5024752;28;20045;-88
2022/04/13 05:26:36;;;;;;;12.38;8.05;;;;;;;10.41;100.00;67934.94;5024614;28;20192;-87
2022/04/13 05:29:01;;;;;;;20.67;7.82;;;;;;;10.43;100.00;67934.53;5023582;28;20116;-87
2022/04/13 05:31:27;;;;;;;17.08;8.35;;;;;;;10.47;100.00;67937.00;5024893;28;20511;-88
2022/04/13 05:33:52;;;;;;;15.48;7.82;;;;;;;10.52;100.00;67942.66;5005580;28;20033;-88
2022/04/13 05:36:17;;;;;;;16.65;8.27;;;;;;;;;;5003764;28;20069;-88
2022/04/13 05:38:43;;;;;;;17.55;8.57;;;;;;;10.63;100.00;67954.56;5006214;28;20042;-87
2022/04/13 05:41:08;;;;;;;15.90;8.68;;;;;;;10.69;100.00;67961.38;5022175;28;20052;-87
2022/04/13 05:43:35;;;;;;;17.98;8.18;;;;;;;;;;5005325;28;20560;-87
2022/04/13 05:46:01;;;;;;;17.88;8.65;;;;;;;10.80;99.63;67973.31;5002363;28;20077;-87
2022/04/13 05:48:26;;;;;;;12.18;7.90;;;;;;;10.86;99.01;67979.53;5007766;28;20911;-87
2022/04/13 05:50:52;;;;;;;14.98;8.13;;;;;;;10.92;98.70;67986.91;5020867;28;20041;-87
2022/04/13 05:53:18;;;;;;;14.82;7.95;;;;;;;10.97;99.13;67997.34;5024487;28;20056;-87
2022/04/13 05:55:43;;;;;;;13.65;8.10;;;;;;;;;;5006741;28;20041;-87
2022/04/13 05:58:08;;;;;;;14.95;8.70;;;;;;;11.09;99.08;68005.66;5008261;28;20095;-88
2022/04/13 06:00:34;;;;;;;14.27;8.40;;;;;;;11.15;98.20;68011.91;5009331;28;20156;-86
2022/04/13 06:03:00;;;;;;;14.57;7.88;;;;;;;11.20;98.17;68012.25;5026807;28;20164;-86
2022/04/13 06:05:25;;;;;;;17.80;8.60;;;;;;;;;;5008723;28;20054;-86
2022/04/13 06:07:53;;;;;;;14.90;9.18;;;;;;;11.30;98.40;68028.91;5027608;28;20049;-86
2022/04/13 06:10:19;;;;;;;16.40;8.77;;;;;;;11.36;98.45;68035.16;5008639;28;20041;-86
2022/04/13 06:12:46;;;;;;;16.75;8.45;;;;;;;11.42;98.35;68041.97;5007302;28;20132;-87
2022/04/13 06:15:14;;;;;;;16.88;8.80;;;;;;;11.47;98.15;68047.66;5027719;28;20037;-86
2022/04/13 06:17:40;;;;;;;14.60;8.55;;;;;;;11.57;97.85;68061.13;5028673;28;20069;-86
2022/04/13 06:20:07;;;;;;;17.10;8.52;;;;;;;11.67;96.91;68069.81;5009460;28;20068;-86
2022/04/13 06:22:36;;;;;;;16.27;9.07;;;;;;;11.77;96.78;68081.19;5028601;28;20041;-86
2022/04/13 06:25:03;;;;;;;12.13;8.07;;;;;;;11.87;95.77;68087.22;5025725;28;20108;-86
2022/04/13 06:27:28;;;;;;;16.60;8.88;;;;;;;11.98;94.81;68104.47;5010086;28;20042;-86
2022/04/13 06:29:53;;;;;;;17.20;7.75;;;;;;;;;;5029112;28;20504;-86
2022/04/13 06:32:19;;;;;;;13.20;8.10;;;;;;;12.21;92.75;68130.06;5029606;28;20160;-86
2022/04/13 06:34:44;;;;;;;20.90;8.70;;;;;;;12.36;91.66;68147.09;5030835;28;20120;-86
2022/04/13 06:37:09;;;;;;;19.33;9.00;;;;;;;;;;5012296;28;20630;-86
2022/04/13 06:39:35;;;;;;;19.63;9.20;;;;;;;12.60;89.54;68173.22;5009361;28;20570;-86
2022/04/13 06:42:00;;;;;;;13.20;7.95;;;;;;;;;;5024560;28;20783;-86
2022/04/13 06:44:25;;;;;;;15.18;8.25;;;;;;;12.81;87.98;68197.09;5028638;28;20517;-86
2022/04/13 06:46:52;;;;;;;17.25;8.48;;;;;;;12.90;86.79;68201.44;5006271;28;20048;-85
2022/04/13 06:49:17;;;;;;;15.88;8.60;;;;;;;12.99;86.64;68217.00;5008949;28;20045;-86
2022/04/13 06:51:43;;;;;;;20.88;8.55;;;;;;;13.09;86.27;68228.38;5025792;28;20087;-86
2022/04/13 06:54:08;;;;;;;17.08;8.25;;;;;;;13.18;85.55;68240.16;5020403;28;20084;-86
2022/04/13 06:56:33;;;;;;;16.10;8.48;;;;;;;;;;5007492;28;20124;-86
2022/04/13 06:58:59;;;;;;;14.48;8.38;;;;;;;13.37;84.63;68258.53;5008592;28;20520;-86
2022/04/13 07:01:24;;;;;;;14.38;8.90;;;;;;;13.44;84.55;68261.72;5025562;28;20053;-86
2022/04/13 07:03:50;;;;;;;15.63;8.23;;;;;;;13.51;84.00;68269.69;5008388;28;20049;-86
2022/04/13 07:06:16;;;;;;;13.35;8.32;;;;;;;13.56;83.36;68280.16;5023771;28;20590;-86
2022/04/13 07:08:41;;;;;;;12.80;8.32;;;;;;;13.64;83.93;68283.34;5026387;28;20408;-86
2022/04/13 07:11:06;;;;;;;15.48;8.45;;;;;;;;;;5009170;28;20077;-85
2022/04/13 07:13:32;;;;;;;15.32;8.48;;;;;;;13.76;83.42;68308.25;5006743;28;20041;-86
2022/04/13 07:15:57;;;;;;;17.20;8.60;;;;;;;13.85;82.89;68306.66;5007491;28;20069;-85
2022/04/13 07:18:23;;;;;;;18.02;8.20;;;;;;;13.96;83.34;68325.09;5007468;28;20048;-86
2022/04/13 07:20:49;;;;;;;12.43;7.85;;;;;;;14.05;83.21;68334.19;5009674;28;20148;-86
2022/04/13 07:23:14;;;;;;;16.48;8.70;;;;;;;14.11;82.61;68336.22;5024860;28;20682;-86
2022/04/13 07:25:40;;;;;;;16.98;8.65;;;;;;;;;;5027426;28;20460;-86
2022/04/13 07:28:05;;;;;;;14.13;8.50;;;;;;;;;;5016486;28;21862;-85
2022/04/13 07:30:31;;;;;;;15.70;8.43;;;;;;;;;;5019452;28;20056;-85
2022/04/13 07:33:01;;;;;;;14.15;8.70;;;;;;;14.43;82.27;68372.09;5008745;28;20122;-86
2022/04/13 07:35:30;;;;;;;13.88;8.20;;;;;;;14.49;81.88;68383.69;5025928;28;20344;-86
2022/04/13 07:37:57;;;;;;;17.23;8.57;;;;;;;14.61;82.83;68392.03;5005280;28;20050;-87
2022/04/13 07:40:23;;;;;;;15.43;8.25;;;;;;;14.69;82.80;68400.00;5005927;28;20140;-86
2022/04/13 07:42:48;;;;;;;12.90;8.18;;;;;;;;;;5026054;28;20049;-86
2022/04/13 07:45:14;;;;;;;14.32;8.52;;;;;;;14.85;83.08;68418.78;5005632;28;20049;-86
2022/04/13 07:47:40;;;;;;;12.77;8.13;;;;;;;;;;5007161;28;20119;-86
2022/04/13 07:50:06;;;;;;;11.80;7.38;;;;;;;15.04;82.88;68445.22;5006550;28;20505;-86
2022/04/13 07:52:34;;;;;;;12.75;7.60;;;;;;;15.08;82.63;68449.78;5025617;28;20044;-85
2022/04/13 07:54:59;;;;;;;14.20;8.00;;;;;;;15.12;82.74;68457.00;5025353;28;20045;-87
2022/04/13 07:57:25;;;;;;;13.48;7.20;;;;;;;15.19;83.10;68455.78;5005620;28;20068;-85
2022/04/13 07:59:50;;;;;;;13.35;7.85;;;;;;;;;;5026211;28;20052;-86
2022/04/13 08:02:19;;;;;;;13.70;7.57;;;;;;;;;;5024468;28;20054;-86
2022/04/13 08:04:45;;;;;;;10.55;7.10;;;;;;;;;;5008007;28;20926;-85
2022/04/13 08:07:10;;;;;;;12.47;6.00;;;;;;;15.48;83.02;68486.16;5005394;28;20077;-86
2022/04/13 08:09:37;;;;;;;13.25;6.00;;;;;;;15.57;82.75;68504.44;5004741;28;20296;-86
2022/04/13 08:12:03;;;;;;;9.27;5.05;;;;;;;15.66;83.01;68508.78;5026480;28;20044;-85
2022/04/13 08:14:28;;;;;;;11.55;5.03;;;;;;;15.69;82.06;68517.00;5024494;28;20043;-86
2022/04/13 08:16:53;;;;;;;10.88;4.70;;;;;;;;;;5000612;28;20045;-86
2022/04/13 08:19:19;;;;;;;7.97;4.90;;;;;;;;;;5005583;28;20057;-86
2022/04/13 08:21:44;;;;;;;9.93;5.30;;;;;;;;;;5008109;28;20287;-85
2022/04/13 08:24:09;;;;;;;8.98;5.80;;;;;;;;;;5024248;28;20041;-86
2022/04/13 08:26:35;;;;;;;11.32;6.25;;;;;;;15.99;80.96;68550.63;5006562;28;20057;-86
2022/04/13 08:29:00;;;;;;;9.85;6.13;;;;;;;;;;5005387;28;20042;-86
2022/04/13 08:31:25;;;;;;;13.10;6.67;;;;;;;16.12;81.74;68559.50;5026186;28;20050;-86
2022/04/13 08:33:51;;;;;;;14.02;6.85;;;;;;;16.20;81.92;68568.63;5005855;28;20311;-86
2022/04/13 08:36:16;;;;;;;13.57;6.95;;;;;;;16.24;81.45;68573.75;5024677;28;21291;-86
2022/04/13 08:38:42;;;;;;;10.32;5.45;;;;;;;;;;4998689;28;20045;-86
2022/04/13 08:41:13;;;;;;;10.73;4.97;;;;;;;;;;5005635;28;20099;-86
2022/04/13 08:43:48;;;;;;;9.05;4.18;;;;;;;16.30;81.86;68584.81;5008492;28;20383;-86
2022/04/13 08:46:23;;;;;;;9.30;4.97;;;;;;;16.23;80.87;68578.00;5021713;28;20041;-86
2022/04/13 08:48:50;;;;;;;9.43;4.20;;;;;;;;;;5025340;28;20056;-86
2022/04/13 08:51:17;;;;;;;8.95;4.38;;;;;;;;;;5022631;28;20041;-86
2022/04/13 08:53:48;;;;;;;11.40;4.70;;;;;;;;;;4996958;28;20041;-86
2022/04/13 08:56:17;;;;;;;8.05;4.55;;;;;;;16.33;80.47;68583.44;5023203;28;20580;-85
2022/04/13 08:58:50;;;;;;;9.23;4.80;;;;;;;16.34;80.39;68584.00;5004924;28;20460;-88
2022/04/13 09:01:27;;;;;;;10.07;5.05;;;;;;;16.42;80.84;68593.69;5005268;28;20053;-85
2022/04/13 09:03:57;;;;;;;12.18;5.95;;;;;;;16.45;80.82;68597.09;5025348;28;20045;-85
2022/04/13 09:06:25;;;;;;;11.75;6.15;;;;;;;16.53;81.00;68605.66;5021871;28;20069;-85
2022/04/13 09:08:54;;;;;;;11.98;6.30;;;;;;;;;;5005914;28;20033;-85
2022/04/13 09:11:23;;;;;;;11.40;6.55;;;;;;;;;;5022914;28;20135;-85
2022/04/13 09:13:51;;;;;;;12.23;6.82;;;;;;;16.57;80.96;68609.66;5008344;28;20179;-85
2022/04/13 09:16:18;;;;;;;15.93;8.45;;;;;;;16.57;79.92;68610.25;5024508;28;20038;-85
2022/04/13 09:18:43;;;;;;;14.93;7.55;;;;;;;;;;5025953;28;20141;-86
2022/04/13 09:21:12;;;;;;;13.70;7.57;;;;;;;16.73;80.71;68633.28;5023358;28;20137;-85
2022/04/13 09:23:37;;;;;;;10.57;7.22;;;;;;;16.80;79.79;68641.28;5023267;28;20504;-85
2022/04/13 09:26:04;;;;;;;13.68;8.00;;;;;;;16.75;79.02;68635.00;5022525;28;20072;-85
2022/04/13 09:28:29;;;;;;;14.23;8.57;;;;;;;16.73;79.78;68627.91;5006432;28;20087;-86
2022/04/13 09:30:55;;;;;;;12.90;7.55;;;;;;;16.77;79.46;68631.91;5027500;28;20455;-86
2022/04/13 09:33:21;;;;;;;14.15;7.75;;;;;;;16.70;79.32;68629.84;5011285;28;20489;-86
2022/04/13 09:35:47;;;;;;;16.08;9.98;;;;;;;;;;5029632;28;20043;-86
2022/04/13 09:38:12;;;;;;;14.57;8.65;;;;;;;16.79;80.76;68639.56;5008709;28;20045;-86
2022/04/13 09:40:37;;;;;;;17.80;8.77;;;;;;;;;;5018329;28;20329;-86
2022/04/13 09:43:10;;;;;;;19.60;9.30;;;;;;;17.00;80.40;68658.13;5030603;28;20037;-86
2022/04/13 09:45:42;;;;;;;18.88;10.35;;;;;;;;;;5006648;28;20057;-85
2022/04/13 09:48:08;;;;;;;14.50;9.07;;;;;;;;;;5007033;28;20122;-85
2022/04/13 09:50:33;;;;;;;14.25;8.93;;;;;;;16.76;80.07;68636.72;5028179;28;20050;-85
2022/04/13 09:53:05;;;;;;;14.80;9.05;;;;;;;16.86;80.68;68648.13;5006451;28;20074;-86
2022/04/13 09:55:33;;;;;;;13.90;9.35;;;;;;;16.99;79.51;68656.44;5008629;28;20400;-85
2022/04/13 09:58:06;;;;;;;14.20;7.80;;;;;;;16.80;78.32;68635.34;4995675;28;20037;-85
2022/04/13 10:00:32;;;;;;;14.40;8.20;;;;;;;16.99;80.06;68656.44;5025817;28;20531;-85
2022/04/13 10:03:07;;;;;;;14.45;8.55;;;;;;;17.08;80.08;68666.69;5028390;28;20485;-86
2022/04/13 10:05:32;;;;;;;14.48;8.27;;;;;;;17.30;78.43;68696.63;4981781;28;20056;-85
2022/04/13 10:08:02;;;;;;;11.45;8.15;;;;;;;;;;5028447;28;20038;-85
2022/04/13 10:10:28;;;;;;;14.15;7.15;;;;;;;17.27;77.42;68693.75;5023877;28;20041;-85
2022/04/13 10:12:56;;;;;;;13.18;8.15;;;;;;;;;;4994830;28;20046;-85
2022/04/13 10:15:22;;;;;;;13.15;8.90;;;;;;;17.33;78.33;68700.59;5026166;28;20045;-86
2022/04/13 10:17:48;;;;;;;17.38;9.32;;;;;;;17.32;80.25;68688.72;5022016;28;20468;-85
2022/04/13 10:20:13;;;;;;;14.25;9.05;;;;;;;17.25;78.98;68691.47;5023116;28;20472;-85
2022/04/13 10:22:58;;;;;;;16.25;8.80;;;;;;;;;;5024031;28;20041;-86
2022/04/13 10:25:27;;;;;;;13.40;8.48;;;;;;;17.38;80.32;68700.38;4995850;28;20042;-85
2022/04/13 10:28:02;;;;;;;14.52;8.52;;;;;;;17.69;78.14;68735.16;5019165;28;20060;-85
2022/04/13 10:30:32;;;;;;;12.98;7.57;;;;;;;;;;5029894;28;20455;-85
2022/04/13 10:33:01;;;;;;;13.88;10.02;;;;;;;;;;5023523;28;20128;-85
2022/04/13 10:35:28;;;;;;;15.23;10.70;;;;;;;17.61;78.89;68726.03;5001705;28;20107;-85
2022/04/13 10:37:55;;;;;;;16.45;10.95;;;;;;;17.68;78.86;68733.44;5002353;28;20049;-86
2022/04/13 10:40:21;;;;;;;15.68;10.10;;;;;;;;;;5013884;28;20042;-86
2022/04/13 10:42:50;;;;;;;17.20;10.57;;;;;;;;;;5029388;28;20052;-85
2022/04/13 10:45:17;;;;;;;15.68;10.05;;;;;;;17.93;77.74;68766.81;5007801;28;20041;-85
2022/04/13 10:47:51;;;;;;;14.75;8.68;;;;;;;;;;5026371;28;20047;-86
2022/04/13 10:50:24;;;;;;;14.63;9.35;;;;;;;18.10;76.11;68780.84;5004869;28;20544;-85
2022/04/13 10:53:06;;;;;;;18.45;8.60;;;;;;;17.93;74.23;68761.44;5029011;28;20264;-85
2022/04/13 10:55:34;;;;;;;14.18;9.68;;;;;;;17.88;75.88;68755.72;5008558;28;20780;-86
2022/04/13 10:57:59;;;;;;;15.40;9.52;;;;;;;17.90;76.31;68758.00;5021870;28;20113;-85
2022/04/13 11:00:25;;;;;;;14.52;8.98;;;;;;;17.97;76.40;68766.00;5023066;28;20473;-85
2022/04/13 11:03:09;;;;;;;18.60;9.18;;;;;;;17.90;77.12;68752.63;5012170;28;20029;-85
2022/04/13 11:05:35;;;;;;;14.32;9.07;;;;;;;;;;5025786;28;20393;-85
2022/04/13 11:08:19;;;;;;;14.25;8.98;;;;;;;;;;5004453;28;21120;-85
2022/04/13 11:10:49;;;;;;;14.43;8.20;;;;;;;18.36;77.38;68815.34;5005600;28;20045;-85
2022/04/13 11:13:19;;;;;;;13.85;8.45;;;;;;;18.60;77.12;68842.16;4999564;28;20632;-85
2022/04/13 11:15:49;;;;;;;11.50;6.88;;;;;;;;;;5005883;28;20052;-85
2022/04/13 11:18:20;;;;;;;12.68;8.60;;;;;;;18.60;73.81;68833.50;5026142;28;20748;-85
2022/04/13 11:21:04;;;;;;;15.27;9.00;;;;;;;18.52;74.16;68822.25;5024261;28;20413;-85
2022/04/13 11:23:46;;;;;;;14.25;9.05;;;;;;;18.43;74.33;68814.66;5026909;28;20045;-86
2022/04/13 11:26:12;;;;;;;15.13;7.53;;;;;;;18.55;74.40;68831.06;5009178;28;20041;-85
2022/04/13 11:28:38;;;;;;;11.18;7.22;;;;;;;;;;5028349;28;20048;-86
2022/04/13 11:31:10;;;;;;;11.57;6.35;;;;;;;;;;5026009;28;20041;-85
2022/04/13 11:33:43;;;;;;;12.38;6.60;;;;;;;18.60;74.11;68833.50;5021198;28;20052;-86
2022/04/13 11:36:09;;;;;;;12.88;6.00;;;;;;;18.63;74.52;68845.59;4997893;28;20091;-86
2022/04/13 11:38:36;;;;;;;11.50;6.18;;;;;;;18.82;72.32;68858.09;4999020;28;20508;-86
2022/04/13 11:41:07;;;;;;;11.95;7.05;;;;;;;;;;5012506;28;20037;-86
2022/04/13 11:43:34;;;;;;;11.68;8.13;;;;;;;18.99;73.71;68879.63;5015615;28;20045;-86
2022/04/13 11:45:59;;;;;;;15.20;8.30;;;;;;;18.65;73.62;68842.50;5023041;28;20037;-86
2022/04/13 11:48:32;;;;;;;14.25;9.25;;;;;;;18.96;75.75;68873.50;5007648;28;20049;-86
2022/04/13 11:51:17;;;;;;;13.85;9.27;;;;;;;;;;4996754;28;20045;-86
2022/04/13 11:53:53;;;;;;;13.63;8.93;;;;;;;19.08;73.94;68890.47;5023393;28;20544;-86
2022/04/13 11:56:39;;;;;;;13.95;8.60;;;;;;;18.91;73.86;68868.94;5006240;28;20256;-86
2022/04/13 11:59:05;;;;;;;13.57;9.43;;;;;;;;;;4993067;28;20045;-86
2022/04/13 12:01:33;;;;;;;12.10;10.25;;;;;;;18.92;75.66;68877.59;5023125;28;20045;-84